sensor_id;sensor_type;location;lat;lon;timestamp;pressure;altitude;pressure_sealevel;temperature;humidity
18819;BME280;9537;45.594;9.294;2023-02-13T00:00:26;101742.38;;;2.46;62.89
18819;BME280;9537;45.594;9.294;2023-02-13T00:01:27;101738.78;;;2.48;62.61
18819;BME280;9537;45.594;9.294;2023-02-13T00:02:30;101736.13;;;2.50;62.39
18819;BME280;9537;45.594;9.294;2023-02-13T00:03:32;101738.59;;;2.53;62.43
18819;BME280;9537;45.594;9.294;2023-02-13T00:04:34;101742.88;;;2.54;62.78
18819;BME280;9537;45.594;9.294;2023-02-13T00:05:35;101737.75;;;2.53;62.48
18819;BME280;9537;45.594;9.294;2023-02-13T00:06:37;101742.03;;;2.54;63.20
18819;BME280;9537;45.594;9.294;2023-02-13T00:07:38;101741.19;;;2.53;62.33
18819;BME280;9537;45.594;9.294;2023-02-13T00:08:40;101739.50;;;2.52;63.21
18819;BME280;9537;45.594;9.294;2023-02-13T00:09:41;101741.38;;;2.48;62.65
18819;BME280;9537;45.594;9.294;2023-02-13T00:10:43;101741.63;;;2.44;63.68
18819;BME280;9537;45.594;9.294;2023-02-13T00:11:44;101740.81;;;2.42;62.70
18819;BME280;9537;45.594;9.294;2023-02-13T00:12:46;101747.03;;;2.39;63.01
18819;BME280;9537;45.594;9.294;2023-02-13T00:13:47;101739.44;;;2.35;63.63
18819;BME280;9537;45.594;9.294;2023-02-13T00:14:49;101741.16;;;2.34;63.67
18819;BME280;9537;45.594;9.294;2023-02-13T00:15:57;101734.22;;;2.35;63.78
18819;BME280;9537;45.594;9.294;2023-02-13T00:16:59;101735.09;;;2.34;63.10
18819;BME280;9537;45.594;9.294;2023-02-13T00:18:02;101737.56;;;2.37;63.13
18819;BME280;9537;45.594;9.294;2023-02-13T00:19:04;101734.22;;;2.35;63.74
18819;BME280;9537;45.594;9.294;2023-02-13T00:20:06;101734.25;;;2.33;63.50
18819;BME280;9537;45.594;9.294;2023-02-13T00:21:09;101740.13;;;2.38;64.15
18819;BME280;9537;45.594;9.294;2023-02-13T00:22:11;101729.56;;;2.41;63.25
18819;BME280;9537;45.594;9.294;2023-02-13T00:23:13;101746.00;;;2.43;63.15
18819;BME280;9537;45.594;9.294;2023-02-13T00:24:14;101738.91;;;2.45;62.94
18819;BME280;9537;45.594;9.294;2023-02-13T00:25:16;101738.06;;;2.45;63.01
18819;BME280;9537;45.594;9.294;2023-02-13T00:26:17;101744.28;;;2.42;63.14
18819;BME280;9537;45.594;9.294;2023-02-13T00:27:19;101747.72;;;2.43;63.54
18819;BME280;9537;45.594;9.294;2023-02-13T00:28:20;101741.63;;;2.44;63.52
18819;BME280;9537;45.594;9.294;2023-02-13T00:29:22;101749.44;;;2.44;62.97
18819;BME280;9537;45.594;9.294;2023-02-13T00:30:23;101745.47;;;2.35;63.48
18819;BME280;9537;45.594;9.294;2023-02-13T00:31:25;101745.63;;;2.32;63.40
18819;BME280;9537;45.594;9.294;2023-02-13T00:32:26;101744.75;;;2.32;63.99
18819;BME280;9537;45.594;9.294;2023-02-13T00:33:29;101749.13;;;2.31;63.61
18819;BME280;9537;45.594;9.294;2023-02-13T00:34:30;101740.66;;;2.26;64.17
18819;BME280;9537;45.594;9.294;2023-02-13T00:35:32;101741.81;;;2.20;63.78
18819;BME280;9537;45.594;9.294;2023-02-13T00:36:33;101746.00;;;2.23;63.73
18819;BME280;9537;45.594;9.294;2023-02-13T00:37:36;101740.03;;;2.21;63.53
18819;BME280;9537;45.594;9.294;2023-02-13T00:38:37;101734.88;;;2.19;63.87
18819;BME280;9537;45.594;9.294;2023-02-13T00:39:40;101742.69;;;2.19;63.82
18819;BME280;9537;45.594;9.294;2023-02-13T00:40:41;101745.31;;;2.19;64.54
18819;BME280;9537;45.594;9.294;2023-02-13T00:41:44;101740.94;;;2.20;64.16
18819;BME280;9537;45.594;9.294;2023-02-13T00:42:45;101739.19;;;2.20;64.09
18819;BME280;9537;45.594;9.294;2023-02-13T00:43:48;101741.72;;;2.22;63.67
18819;BME280;9537;45.594;9.294;2023-02-13T00:44:49;101747.78;;;2.22;64.29
18819;BME280;9537;45.594;9.294;2023-02-13T00:45:51;101746.00;;;2.23;64.18
18819;BME280;9537;45.594;9.294;2023-02-13T00:46:52;101747.72;;;2.24;63.90
18819;BME280;9537;45.594;9.294;2023-02-13T00:47:54;101746.88;;;2.23;64.13
18819;BME280;9537;45.594;9.294;2023-02-13T00:48:56;101748.56;;;2.24;64.17
18819;BME280;9537;45.594;9.294;2023-02-13T00:49:58;101748.56;;;2.24;64.02
18819;BME280;9537;45.594;9.294;2023-02-13T00:50:59;101752.94;;;2.24;64.15
18819;BME280;9537;45.594;9.294;2023-02-13T00:52:01;101752.09;;;2.23;64.24
18819;BME280;9537;45.594;9.294;2023-02-13T00:53:02;101751.31;;;2.21;64.33
18819;BME280;9537;45.594;9.294;2023-02-13T00:54:04;101752.22;;;2.20;63.80
18819;BME280;9537;45.594;9.294;2023-02-13T00:55:05;101751.72;;;2.12;64.22
18819;BME280;9537;45.594;9.294;2023-02-13T00:56:07;101757.06;;;2.09;64.04
18819;BME280;9537;45.594;9.294;2023-02-13T00:57:09;101760.44;;;2.11;64.80
18819;BME280;9537;45.594;9.294;2023-02-13T00:58:11;101757.06;;;2.09;64.49
18819;BME280;9537;45.594;9.294;2023-02-13T00:59:12;101758.09;;;2.05;64.17
18819;BME280;9537;45.594;9.294;2023-02-13T01:00:15;101757.41;;;2.01;64.88
18819;BME280;9537;45.594;9.294;2023-02-13T01:01:16;101757.84;;;1.91;64.80
18819;BME280;9537;45.594;9.294;2023-02-13T01:02:18;101765.63;;;1.92;64.61
18819;BME280;9537;45.594;9.294;2023-02-13T01:03:20;101759.59;;;1.90;64.82
18819;BME280;9537;45.594;9.294;2023-02-13T01:04:24;101765.78;;;1.88;65.39
18819;BME280;9537;45.594;9.294;2023-02-13T01:05:26;101760.78;;;1.83;65.27
18819;BME280;9537;45.594;9.294;2023-02-13T01:06:28;101763.38;;;1.83;65.54
18819;BME280;9537;45.594;9.294;2023-02-13T01:07:29;101762.41;;;1.86;65.78
18819;BME280;9537;45.594;9.294;2023-02-13T01:08:31;101767.63;;;1.86;65.56
18819;BME280;9537;45.594;9.294;2023-02-13T01:09:32;101762.41;;;1.86;65.01
18819;BME280;9537;45.594;9.294;2023-02-13T01:10:36;101764.13;;;1.87;64.99
18819;BME280;9537;45.594;9.294;2023-02-13T01:11:37;101758.91;;;1.87;65.24
18819;BME280;9537;45.594;9.294;2023-02-13T01:12:39;101766.72;;;1.87;65.81
18819;BME280;9537;45.594;9.294;2023-02-13T01:13:40;101770.28;;;1.84;65.29
18819;BME280;9537;45.594;9.294;2023-02-13T01:14:42;101764.88;;;1.89;65.29
18819;BME280;9537;45.594;9.294;2023-02-13T01:15:44;101765.78;;;1.88;65.68
18819;BME280;9537;45.594;9.294;2023-02-13T01:16:46;101762.28;;;1.89;65.39
18819;BME280;9537;45.594;9.294;2023-02-13T01:17:47;101763.19;;;1.88;64.78
18819;BME280;9537;45.594;9.294;2023-02-13T01:18:49;101764.25;;;1.84;65.34
18819;BME280;9537;45.594;9.294;2023-02-13T01:19:51;101768.47;;;1.86;65.42
18819;BME280;9537;45.594;9.294;2023-02-13T01:20:58;101768.47;;;1.86;65.21
18819;BME280;9537;45.594;9.294;2023-02-13T01:21:59;101762.66;;;1.79;65.28
18819;BME280;9537;45.594;9.294;2023-02-13T01:23:01;101761.91;;;1.77;65.67
18819;BME280;9537;45.594;9.294;2023-02-13T01:24:03;101764.59;;;1.74;65.45
18819;BME280;9537;45.594;9.294;2023-02-13T01:25:06;101766.59;;;1.69;66.06
18819;BME280;9537;45.594;9.294;2023-02-13T01:26:10;101768.28;;;1.70;66.07
18819;BME280;9537;45.594;9.294;2023-02-13T01:27:14;101769.81;;;1.74;65.87
18819;BME280;9537;45.594;9.294;2023-02-13T01:28:15;101762.88;;;1.75;65.70
18819;BME280;9537;45.594;9.294;2023-02-13T01:29:17;101765.53;;;1.73;66.14
18819;BME280;9537;45.594;9.294;2023-02-13T01:30:19;101760.41;;;1.72;65.53
18819;BME280;9537;45.594;9.294;2023-02-13T01:31:21;101764.88;;;1.68;66.40
18819;BME280;9537;45.594;9.294;2023-02-13T01:32:22;101768.41;;;1.67;65.51
18819;BME280;9537;45.594;9.294;2023-02-13T01:33:25;101759.53;;;1.71;66.31
18819;BME280;9537;45.594;9.294;2023-02-13T01:34:27;101758.56;;;1.74;66.13
18819;BME280;9537;45.594;9.294;2023-02-13T01:35:30;101761.38;;;1.69;66.29
18819;BME280;9537;45.594;9.294;2023-02-13T01:36:31;101762.28;;;1.68;66.29
18819;BME280;9537;45.594;9.294;2023-02-13T01:37:33;101763.38;;;1.63;65.67
18819;BME280;9537;45.594;9.294;2023-02-13T01:38:34;101767.59;;;1.65;66.44
18819;BME280;9537;45.594;9.294;2023-02-13T01:39:36;101761.50;;;1.66;66.46
18819;BME280;9537;45.594;9.294;2023-02-13T01:40:44;101759.75;;;1.67;66.22
18819;BME280;9537;45.594;9.294;2023-02-13T01:41:45;101766.72;;;1.66;66.57
18819;BME280;9537;45.594;9.294;2023-02-13T01:42:46;101761.50;;;1.66;66.57
18819;BME280;9537;45.594;9.294;2023-02-13T01:43:50;101757.13;;;1.67;65.78
18819;BME280;9537;45.594;9.294;2023-02-13T01:44:53;101758.81;;;1.68;65.73
18819;BME280;9537;45.594;9.294;2023-02-13T01:45:56;101756.16;;;1.69;65.59
18819;BME280;9537;45.594;9.294;2023-02-13T01:46:58;101756.03;;;1.72;66.28
18819;BME280;9537;45.594;9.294;2023-02-13T01:48:02;101758.78;;;1.69;65.53
18819;BME280;9537;45.594;9.294;2023-02-13T01:49:09;101761.44;;;1.68;66.31
18819;BME280;9537;45.594;9.294;2023-02-13T01:50:21;101759.78;;;1.65;65.63
18819;BME280;9537;45.594;9.294;2023-02-13T01:51:29;101760.72;;;1.64;66.40
18819;BME280;9537;45.594;9.294;2023-02-13T01:52:32;101758.94;;;1.65;66.48
18819;BME280;9537;45.594;9.294;2023-02-13T01:53:38;101762.53;;;1.62;66.46
18819;BME280;9537;45.594;9.294;2023-02-13T01:54:43;101757.31;;;1.62;66.56
18819;BME280;9537;45.594;9.294;2023-02-13T01:55:47;101766.06;;;1.61;66.12
18819;BME280;9537;45.594;9.294;2023-02-13T01:56:52;101758.16;;;1.63;66.38
18819;BME280;9537;45.594;9.294;2023-02-13T01:57:59;101756.47;;;1.62;65.82
18819;BME280;9537;45.594;9.294;2023-02-13T01:59:06;101759.22;;;1.58;66.79
18819;BME280;9537;45.594;9.294;2023-02-13T02:00:11;101759.13;;;1.60;66.40
18819;BME280;9537;45.594;9.294;2023-02-13T02:01:14;101760.19;;;1.56;66.04
18819;BME280;9537;45.594;9.294;2023-02-13T02:02:16;101756.25;;;1.46;66.73
18819;BME280;9537;45.594;9.294;2023-02-13T02:03:24;101754.50;;;1.46;67.10
18819;BME280;9537;45.594;9.294;2023-02-13T02:04:30;101759.06;;;1.41;66.93
18819;BME280;9537;45.594;9.294;2023-02-13T02:05:33;101757.28;;;1.42;67.11
18819;BME280;9537;45.594;9.294;2023-02-13T02:06:39;101758.97;;;1.43;67.15
18819;BME280;9537;45.594;9.294;2023-02-13T02:07:43;101759.78;;;1.45;67.03
18819;BME280;9537;45.594;9.294;2023-02-13T02:08:46;101756.50;;;1.40;67.53
18819;BME280;9537;45.594;9.294;2023-02-13T02:09:51;101757.97;;;1.47;66.84
18819;BME280;9537;45.594;9.294;2023-02-13T02:10:54;101757.97;;;1.47;67.09
18819;BME280;9537;45.594;9.294;2023-02-13T02:12:00;101761.41;;;1.47;66.47
18819;BME280;9537;45.594;9.294;2023-02-13T02:13:05;101753.53;;;1.49;67.39
18819;BME280;9537;45.594;9.294;2023-02-13T02:14:08;101750.16;;;1.47;67.12
18819;BME280;9537;45.594;9.294;2023-02-13T02:15:10;101762.25;;;1.48;66.89
18819;BME280;9537;45.594;9.294;2023-02-13T02:16:12;101760.56;;;1.47;67.07
18819;BME280;9537;45.594;9.294;2023-02-13T02:17:14;101756.06;;;1.50;66.75
18819;BME280;9537;45.594;9.294;2023-02-13T02:18:17;101763.03;;;1.50;67.24
18819;BME280;9537;45.594;9.294;2023-02-13T02:19:37;101757.00;;;1.49;66.79
18819;BME280;9537;45.594;9.294;2023-02-13T02:22:50;101755.09;;;1.53;66.85
18819;BME280;9537;45.594;9.294;2023-02-13T02:24:34;101755.91;;;1.55;66.77
18819;BME280;9537;45.594;9.294;2023-02-13T02:29:22;101751.03;;;1.46;66.31
18819;BME280;9537;45.594;9.294;2023-02-13T02:31:01;101754.50;;;1.46;66.52
18819;BME280;9537;45.594;9.294;2023-02-13T02:32:30;101753.72;;;1.44;67.04
18819;BME280;9537;45.594;9.294;2023-02-13T02:33:43;101751.13;;;1.44;66.74
18819;BME280;9537;45.594;9.294;2023-02-13T02:34:55;101744.31;;;1.40;67.10
18819;BME280;9537;45.594;9.294;2023-02-13T02:36:08;101759.94;;;1.40;66.80
18819;BME280;9537;45.594;9.294;2023-02-13T02:37:26;101749.34;;;1.45;67.15
18819;BME280;9537;45.594;9.294;2023-02-13T02:38:43;101753.63;;;1.46;66.71
18819;BME280;9537;45.594;9.294;2023-02-13T02:40:01;101751.13;;;1.44;66.99
18819;BME280;9537;45.594;9.294;2023-02-13T02:41:12;101751.97;;;1.45;66.58
18819;BME280;9537;45.594;9.294;2023-02-13T02:42:45;101748.09;;;1.33;67.33
18819;BME280;9537;45.594;9.294;2023-02-13T02:43:54;101746.16;;;1.38;66.62
18819;BME280;9537;45.594;9.294;2023-02-13T02:45:05;101750.41;;;1.41;67.65
18819;BME280;9537;45.594;9.294;2023-02-13T02:46:15;101746.09;;;1.40;67.56
18819;BME280;9537;45.594;9.294;2023-02-13T02:47:25;101748.69;;;1.40;66.81
18819;BME280;9537;45.594;9.294;2023-02-13T02:48:50;101748.56;;;1.43;66.53
18819;BME280;9537;45.594;9.294;2023-02-13T02:50:25;101756.44;;;1.41;67.18
18819;BME280;9537;45.594;9.294;2023-02-13T02:51:35;101747.66;;;1.44;66.99
18819;BME280;9537;45.594;9.294;2023-02-13T02:52:45;101747.72;;;1.42;67.27
18819;BME280;9537;45.594;9.294;2023-02-13T02:53:54;101748.69;;;1.40;67.75
18819;BME280;9537;45.594;9.294;2023-02-13T02:55:04;101753.06;;;1.39;67.07
18819;BME280;9537;45.594;9.294;2023-02-13T02:56:11;101746.94;;;1.40;67.53
18819;BME280;9537;45.594;9.294;2023-02-13T02:57:20;101746.94;;;1.40;67.95
18819;BME280;9537;45.594;9.294;2023-02-13T02:58:26;101750.31;;;1.42;67.27
18819;BME280;9537;45.594;9.294;2023-02-13T02:59:50;101748.69;;;1.40;67.19
18819;BME280;9537;45.594;9.294;2023-02-13T03:01:15;101741.09;;;1.35;68.02
18819;BME280;9537;45.594;9.294;2023-02-13T03:02:38;101749.59;;;1.39;67.58
18819;BME280;9537;45.594;9.294;2023-02-13T03:03:58;101749.66;;;1.37;68.00
18819;BME280;9537;45.594;9.294;2023-02-13T03:05:21;101748.09;;;1.33;67.79
18819;BME280;9537;45.594;9.294;2023-02-13T03:06:46;101739.25;;;1.37;67.54
18819;BME280;9537;45.594;9.294;2023-02-13T03:07:50;101746.22;;;1.37;68.09
18819;BME280;9537;45.594;9.294;2023-02-13T03:08:53;101745.44;;;1.34;68.26
18819;BME280;9537;45.594;9.294;2023-02-13T03:10:27;101741.97;;;1.34;67.83
18819;BME280;9537;45.594;9.294;2023-02-13T03:11:50;101741.97;;;1.34;67.65
18819;BME280;9537;45.594;9.294;2023-02-13T03:13:14;101741.94;;;1.35;67.70
18819;BME280;9537;45.594;9.294;2023-02-13T03:14:25;101742.72;;;1.38;67.20
18819;BME280;9537;45.594;9.294;2023-02-13T03:15:28;101746.22;;;1.37;67.48
18819;BME280;9537;45.594;9.294;2023-02-13T03:16:30;101742.75;;;1.36;67.86
18819;BME280;9537;45.594;9.294;2023-02-13T03:17:52;101742.06;;;1.32;67.50
18819;BME280;9537;45.594;9.294;2023-02-13T03:19:12;101748.94;;;1.33;67.90
18819;BME280;9537;45.594;9.294;2023-02-13T03:20:41;101741.25;;;1.30;67.80
18819;BME280;9537;45.594;9.294;2023-02-13T03:22:07;101734.25;;;1.32;68.13
18819;BME280;9537;45.594;9.294;2023-02-13T03:23:29;101744.72;;;1.31;67.57
18819;BME280;9537;45.594;9.294;2023-02-13T03:24:43;101742.34;;;1.25;68.06
18819;BME280;9537;45.594;9.294;2023-02-13T03:26:16;101740.59;;;1.25;68.10
18819;BME280;9537;45.594;9.294;2023-02-13T03:27:37;101741.44;;;1.26;67.85
18819;BME280;9537;45.594;9.294;2023-02-13T03:29:07;101743.19;;;1.25;68.76
18819;BME280;9537;45.594;9.294;2023-02-13T03:30:40;101740.53;;;1.27;68.16
18819;BME280;9537;45.594;9.294;2023-02-13T03:31:51;101740.53;;;1.27;67.82
18819;BME280;9537;45.594;9.294;2023-02-13T03:33:13;101740.72;;;1.22;67.65
18819;BME280;9537;45.594;9.294;2023-02-13T03:34:20;101738.00;;;1.25;68.10
18819;BME280;9537;45.594;9.294;2023-02-13T03:35:30;101733.69;;;1.24;68.21
18819;BME280;9537;45.594;9.294;2023-02-13T03:36:58;101736.19;;;1.27;67.74
18819;BME280;9537;45.594;9.294;2023-02-13T03:38:23;101734.41;;;1.28;68.42
18819;BME280;9537;45.594;9.294;2023-02-13T03:39:34;101731.81;;;1.28;68.27
18819;BME280;9537;45.594;9.294;2023-02-13T03:40:43;101736.97;;;1.29;67.62
18819;BME280;9537;45.594;9.294;2023-02-13T03:42:05;101736.13;;;1.29;67.89
18819;BME280;9537;45.594;9.294;2023-02-13T03:43:11;101737.16;;;1.25;68.62
18819;BME280;9537;45.594;9.294;2023-02-13T03:44:17;101736.31;;;1.24;67.82
18819;BME280;9537;45.594;9.294;2023-02-13T03:45:26;101738.06;;;1.24;67.71
18819;BME280;9537;45.594;9.294;2023-02-13T03:46:49;101742.34;;;1.25;68.03
18819;BME280;9537;45.594;9.294;2023-02-13T03:47:54;101744.91;;;1.26;68.48
18819;BME280;9537;45.594;9.294;2023-02-13T03:48:58;101744.13;;;1.24;68.65
18819;BME280;9537;45.594;9.294;2023-02-13T03:50:20;101744.16;;;1.23;67.97
18819;BME280;9537;45.594;9.294;2023-02-13T03:51:25;101749.31;;;1.24;68.22
18819;BME280;9537;45.594;9.294;2023-02-13T03:52:31;101745.03;;;1.23;67.76
18819;BME280;9537;45.594;9.294;2023-02-13T03:53:35;101748.41;;;1.25;68.39
18819;BME280;9537;45.594;9.294;2023-02-13T03:54:42;101751.00;;;1.25;68.76
18819;BME280;9537;45.594;9.294;2023-02-13T03:56:03;101743.16;;;1.27;68.53
18819;BME280;9537;45.594;9.294;2023-02-13T03:57:25;101744.78;;;1.29;68.02
18819;BME280;9537;45.594;9.294;2023-02-13T03:58:48;101743.03;;;1.30;68.30
18819;BME280;9537;45.594;9.294;2023-02-13T04:00:13;101741.25;;;1.30;67.79
18819;BME280;9537;45.594;9.294;2023-02-13T04:01:18;101744.13;;;1.24;68.65
18819;BME280;9537;45.594;9.294;2023-02-13T04:02:24;101745.81;;;1.25;68.22
18819;BME280;9537;45.594;9.294;2023-02-13T04:03:30;101747.63;;;1.23;68.56
18819;BME280;9537;45.594;9.294;2023-02-13T04:04:43;101746.84;;;1.21;68.85
18819;BME280;9537;45.594;9.294;2023-02-13T04:05:51;101748.72;;;1.18;68.56
18819;BME280;9537;45.594;9.294;2023-02-13T04:06:57;101747.84;;;1.17;68.99
18819;BME280;9537;45.594;9.294;2023-02-13T04:08:01;101754.91;;;1.15;68.29
18819;BME280;9537;45.594;9.294;2023-02-13T04:09:02;101750.59;;;1.14;68.96
18819;BME280;9537;45.594;9.294;2023-02-13T04:10:08;101747.97;;;1.14;68.98
18819;BME280;9537;45.594;9.294;2023-02-13T04:11:14;101755.91;;;1.11;68.29
18819;BME280;9537;45.594;9.294;2023-02-13T04:12:20;101748.06;;;1.12;68.22
18819;BME280;9537;45.594;9.294;2023-02-13T04:13:26;101748.31;;;1.06;69.03
18819;BME280;9537;45.594;9.294;2023-02-13T04:14:35;101749.03;;;1.10;69.43
18819;BME280;9537;45.594;9.294;2023-02-13T04:15:42;101758.50;;;1.11;69.18
18819;BME280;9537;45.594;9.294;2023-02-13T04:16:49;101755.91;;;1.11;69.39
18819;BME280;9537;45.594;9.294;2023-02-13T04:17:55;101755.88;;;1.12;68.80
18819;BME280;9537;45.594;9.294;2023-02-13T04:19:00;101753.13;;;1.16;69.23
18819;BME280;9537;45.594;9.294;2023-02-13T04:20:04;101755.66;;;1.17;69.52
18819;BME280;9537;45.594;9.294;2023-02-13T04:21:06;101754.81;;;1.17;69.06
18819;BME280;9537;45.594;9.294;2023-02-13T04:22:07;101750.59;;;1.14;69.22
18819;BME280;9537;45.594;9.294;2023-02-13T04:23:14;101752.31;;;1.15;68.38
18819;BME280;9537;45.594;9.294;2023-02-13T04:24:15;101749.69;;;1.15;69.19
18819;BME280;9537;45.594;9.294;2023-02-13T04:25:19;101758.28;;;1.17;68.84
18819;BME280;9537;45.594;9.294;2023-02-13T04:26:22;101750.47;;;1.17;68.30
18819;BME280;9537;45.594;9.294;2023-02-13T04:27:27;101743.88;;;1.08;69.24
18819;BME280;9537;45.594;9.294;2023-02-13T04:28:28;101752.59;;;1.07;68.59
18819;BME280;9537;45.594;9.294;2023-02-13T04:29:30;101754.47;;;1.04;69.41
18819;BME280;9537;45.594;9.294;2023-02-13T04:30:31;101746.59;;;1.05;69.28
18819;BME280;9537;45.594;9.294;2023-02-13T04:31:33;101750.97;;;1.05;69.14
18819;BME280;9537;45.594;9.294;2023-02-13T04:32:34;101748.47;;;1.02;69.10
18819;BME280;9537;45.594;9.294;2023-02-13T04:33:37;101745.03;;;1.01;68.54
18819;BME280;9537;45.594;9.294;2023-02-13T04:34:38;101743.44;;;0.97;68.77
18819;BME280;9537;45.594;9.294;2023-02-13T04:35:41;101740.06;;;0.95;69.69
18819;BME280;9537;45.594;9.294;2023-02-13T04:36:42;101745.31;;;0.94;68.76
18819;BME280;9537;45.594;9.294;2023-02-13T04:37:44;101747.13;;;0.92;69.62
18819;BME280;9537;45.594;9.294;2023-02-13T04:38:46;101742.03;;;0.88;69.37
18819;BME280;9537;45.594;9.294;2023-02-13T04:39:47;101746.34;;;0.89;69.77
18819;BME280;9537;45.594;9.294;2023-02-13T04:40:49;101749.97;;;0.85;69.33
18819;BME280;9537;45.594;9.294;2023-02-13T04:41:50;101748.28;;;0.84;69.81
18819;BME280;9537;45.594;9.294;2023-02-13T04:42:52;101749.25;;;0.82;70.15
18819;BME280;9537;45.594;9.294;2023-02-13T04:43:54;101746.53;;;0.85;69.93
18819;BME280;9537;45.594;9.294;2023-02-13T04:44:55;101746.47;;;0.86;69.47
18819;BME280;9537;45.594;9.294;2023-02-13T04:45:56;101744.72;;;0.87;69.40
18819;BME280;9537;45.594;9.294;2023-02-13T04:46:58;101751.56;;;0.89;69.54
18819;BME280;9537;45.594;9.294;2023-02-13T04:47:59;101744.72;;;0.87;69.77
18819;BME280;9537;45.594;9.294;2023-02-13T04:49:01;101742.97;;;0.87;69.24
18819;BME280;9537;45.594;9.294;2023-02-13T04:50:03;101742.03;;;0.88;69.83
18819;BME280;9537;45.594;9.294;2023-02-13T04:51:07;101739.53;;;0.87;69.88
18819;BME280;9537;45.594;9.294;2023-02-13T04:52:08;101742.13;;;0.87;69.51
18819;BME280;9537;45.594;9.294;2023-02-13T04:53:10;101737.84;;;0.86;69.93
18819;BME280;9537;45.594;9.294;2023-02-13T04:54:11;101740.34;;;0.87;69.99
18819;BME280;9537;45.594;9.294;2023-02-13T04:55:13;101745.56;;;0.87;69.41
18819;BME280;9537;45.594;9.294;2023-02-13T04:56:14;101739.31;;;0.92;69.66
18819;BME280;9537;45.594;9.294;2023-02-13T04:57:16;101738.47;;;0.91;69.89
18819;BME280;9537;45.594;9.294;2023-02-13T04:58:17;101736.63;;;0.95;70.12
18819;BME280;9537;45.594;9.294;2023-02-13T04:59:19;101743.50;;;0.96;69.76
18819;BME280;9537;45.594;9.294;2023-02-13T05:00:22;101739.94;;;0.98;69.26
18819;BME280;9537;45.594;9.294;2023-02-13T05:01:24;101740.84;;;0.97;69.32
18819;BME280;9537;45.594;9.294;2023-02-13T05:02:25;101737.50;;;0.94;70.04
18819;BME280;9537;45.594;9.294;2023-02-13T05:03:27;101731.50;;;0.92;69.88
18819;BME280;9537;45.594;9.294;2023-02-13T05:04:28;101731.00;;;0.83;69.90
18819;BME280;9537;45.594;9.294;2023-02-13T05:05:30;101737.09;;;0.82;69.84
18819;BME280;9537;45.594;9.294;2023-02-13T05:06:32;101736.19;;;0.83;69.46
18819;BME280;9537;45.594;9.294;2023-02-13T05:07:34;101741.44;;;0.82;69.96
18819;BME280;9537;45.594;9.294;2023-02-13T05:08:35;101741.59;;;0.77;70.32
18819;BME280;9537;45.594;9.294;2023-02-13T05:09:37;101739.00;;;0.77;70.31
18819;BME280;9537;45.594;9.294;2023-02-13T05:10:38;101745.00;;;0.79;70.29
18819;BME280;9537;45.594;9.294;2023-02-13T05:11:40;101739.81;;;0.79;69.85
18819;BME280;9537;45.594;9.294;2023-02-13T05:12:41;101745.00;;;0.79;69.73
18819;BME280;9537;45.594;9.294;2023-02-13T05:13:43;101744.16;;;0.79;69.81
18819;BME280;9537;45.594;9.294;2023-02-13T05:14:44;101745.00;;;0.79;70.45
18819;BME280;9537;45.594;9.294;2023-02-13T05:15:46;101739.00;;;0.77;70.07
18819;BME280;9537;45.594;9.294;2023-02-13T05:16:47;101740.72;;;0.78;69.81
18819;BME280;9537;45.594;9.294;2023-02-13T05:17:50;101743.31;;;0.78;69.87
18819;BME280;9537;45.594;9.294;2023-02-13T05:18:51;101743.25;;;0.80;70.51
18819;BME280;9537;45.594;9.294;2023-02-13T05:19:54;101743.25;;;0.80;70.34
18819;BME280;9537;45.594;9.294;2023-02-13T05:20:56;101741.44;;;0.82;70.11
18819;BME280;9537;45.594;9.294;2023-02-13T05:22:17;101742.38;;;0.81;70.61
18819;BME280;9537;45.594;9.294;2023-02-13T05:23:36;101738.84;;;0.82;69.96
18819;BME280;9537;45.594;9.294;2023-02-13T05:24:37;101740.72;;;0.78;70.48
18819;BME280;9537;45.594;9.294;2023-02-13T05:25:40;101746.75;;;0.79;70.53
18819;BME280;9537;45.594;9.294;2023-02-13T05:26:42;101743.38;;;0.77;69.81
18819;BME280;9537;45.594;9.294;2023-02-13T05:27:43;101742.53;;;0.76;70.11
18819;BME280;9537;45.594;9.294;2023-02-13T05:28:44;101742.38;;;0.81;69.69
18819;BME280;9537;45.594;9.294;2023-02-13T05:30:05;101747.50;;;0.82;70.64
18819;BME280;9537;45.594;9.294;2023-02-13T05:31:07;101740.47;;;0.84;70.62
18819;BME280;9537;45.594;9.294;2023-02-13T05:32:08;101735.28;;;0.84;69.66
18819;BME280;9537;45.594;9.294;2023-02-13T05:33:10;101744.00;;;0.83;70.19
18819;BME280;9537;45.594;9.294;2023-02-13T05:34:11;101744.00;;;0.83;70.54
18819;BME280;9537;45.594;9.294;2023-02-13T05:35:13;101736.19;;;0.83;70.06
18819;BME280;9537;45.594;9.294;2023-02-13T05:36:14;101739.63;;;0.84;69.52
18819;BME280;9537;45.594;9.294;2023-02-13T05:37:18;101740.53;;;0.83;69.63
18819;BME280;9537;45.594;9.294;2023-02-13T05:38:20;101743.03;;;0.86;70.39
18819;BME280;9537;45.594;9.294;2023-02-13T05:39:21;101743.94;;;0.85;69.65
18819;BME280;9537;45.594;9.294;2023-02-13T05:40:23;101746.47;;;0.86;69.95
18819;BME280;9537;45.594;9.294;2023-02-13T05:41:24;101746.53;;;0.85;70.52
18819;BME280;9537;45.594;9.294;2023-02-13T05:42:26;101744.72;;;0.87;70.03
18819;BME280;9537;45.594;9.294;2023-02-13T05:43:28;101747.38;;;0.85;69.82
18819;BME280;9537;45.594;9.294;2023-02-13T05:44:29;101743.94;;;0.85;70.66
18819;BME280;9537;45.594;9.294;2023-02-13T05:45:32;101744.00;;;0.83;69.66
18819;BME280;9537;45.594;9.294;2023-02-13T05:46:33;101743.09;;;0.84;70.26
18819;BME280;9537;45.594;9.294;2023-02-13T05:47:35;101749.94;;;0.87;70.07
18819;BME280;9537;45.594;9.294;2023-02-13T05:48:37;101744.84;;;0.84;70.46
18819;BME280;9537;45.594;9.294;2023-02-13T05:49:39;101741.31;;;0.85;70.36
18819;BME280;9537;45.594;9.294;2023-02-13T05:50:41;101751.00;;;0.81;70.11
18819;BME280;9537;45.594;9.294;2023-02-13T05:51:42;101746.59;;;0.83;69.95
18819;BME280;9537;45.594;9.294;2023-02-13T05:52:47;101753.72;;;0.78;70.34
18819;BME280;9537;45.594;9.294;2023-02-13T05:53:48;101748.41;;;0.81;70.68
18819;BME280;9537;45.594;9.294;2023-02-13T05:54:50;101744.97;;;0.81;70.43
18819;BME280;9537;45.594;9.294;2023-02-13T05:55:52;101747.59;;;0.79;70.61
18819;BME280;9537;45.594;9.294;2023-02-13T05:56:53;101740.59;;;0.81;70.06
18819;BME280;9537;45.594;9.294;2023-02-13T05:57:55;101738.81;;;0.83;70.07
18819;BME280;9537;45.594;9.294;2023-02-13T05:58:57;101745.81;;;0.81;70.43
18819;BME280;9537;45.594;9.294;2023-02-13T05:59:59;101744.13;;;0.80;70.48